createdAt,value
2022-09-06T00:01:44.367Z,99.99
2022-09-06T00:04:15.568Z,99.99
2022-09-06T00:06:45.883Z,99.99
2022-09-06T00:09:15.907Z,99.99
2022-09-06T00:11:46.339Z,99.99
2022-09-06T00:14:16.627Z,99.99
2022-09-06T00:16:46.516Z,99.99
2022-09-06T00:19:16.457Z,99.99
2022-09-06T00:21:46.374Z,99.99
2022-09-06T00:24:16.506Z,99.99
2022-09-06T00:26:46.388Z,99.99
2022-09-06T00:29:16.561Z,99.99
2022-09-06T00:31:46.520Z,99.99
2022-09-06T00:34:16.598Z,99.99
2022-09-06T00:36:46.517Z,99.99
2022-09-06T00:39:16.528Z,99.99
2022-09-06T00:41:46.417Z,99.99
2022-09-06T00:44:16.658Z,99.99
2022-09-06T00:46:49.625Z,99.99
2022-09-06T00:49:27.814Z,99.99
2022-09-06T00:52:09.566Z,99.99
2022-09-06T00:54:40.821Z,99.99
2022-09-06T00:57:12.186Z,99.99
2022-09-06T00:59:44.119Z,99.99
2022-09-06T01:02:14.994Z,99.99
2022-09-06T01:04:46.465Z,99.99
2022-09-06T01:07:24.766Z,99.99
2022-09-06T01:10:21.181Z,99.99
2022-09-06T01:13:02.748Z,99.99
2022-09-06T01:15:50.974Z,99.99
2022-09-06T01:18:21.567Z,99.99
2022-09-06T01:21:26.383Z,99.99
2022-09-06T01:24:14.383Z,99.99
2022-09-06T01:26:56.450Z,99.99
2022-09-06T01:29:47.850Z,99.99
2022-09-06T01:32:36.380Z,99.99
2022-09-06T01:35:26.334Z,99.99
2022-09-06T01:37:58.610Z,99.99
2022-09-06T01:40:29.720Z,99.99
2022-09-06T01:43:00.435Z,99.99
2022-09-06T01:46:08.277Z,99.99
2022-09-06T01:49:02.811Z,99.99
2022-09-06T01:52:12.013Z,99.99
2022-09-06T01:54:54.151Z,99.99
2022-09-06T01:58:10.695Z,99.99
2022-09-06T02:00:57.780Z,99.99
2022-09-06T02:03:34.048Z,99.99
2022-09-06T02:06:25.338Z,99.99
2022-09-06T02:09:06.438Z,99.99
2022-09-06T02:11:44.231Z,99.99
2022-09-06T02:14:21.929Z,99.99
2022-09-06T02:16:55.423Z,99.99
2022-09-06T02:20:11.784Z,99.99
2022-09-06T02:22:45.334Z,99.99
2022-09-06T02:25:22.915Z,99.99
2022-09-06T02:27:53.508Z,99.99
2022-09-06T02:30:23.486Z,99.99
2022-09-06T02:33:01.591Z,99.99
2022-09-06T02:35:32.444Z,99.99
2022-09-06T02:38:03.701Z,99.99
2022-09-06T02:40:33.920Z,99.99
2022-09-06T02:43:03.983Z,99.99
2022-09-06T02:45:34.664Z,99.99
2022-09-06T02:48:05.493Z,99.99
2022-09-06T02:50:35.294Z,99.99
2022-09-06T02:53:06.635Z,99.99
2022-09-06T02:55:37.693Z,99.99
2022-09-06T02:58:09.724Z,99.99
2022-09-06T03:00:40.180Z,99.99
2022-09-06T03:03:10.599Z,99.99
2022-09-06T03:05:41.321Z,99.99
2022-09-06T03:08:12.120Z,99.99
2022-09-06T03:10:42.300Z,99.99
2022-09-06T03:13:12.139Z,99.99
2022-09-06T03:15:42.067Z,99.99
2022-09-06T03:18:12.603Z,99.99
2022-09-06T03:20:42.940Z,99.99
2022-09-06T03:23:12.867Z,99.99
2022-09-06T03:25:44.477Z,99.99
2022-09-06T03:28:14.747Z,99.99
2022-09-06T03:30:48.087Z,99.99
2022-09-06T03:33:18.939Z,99.99
2022-09-06T03:35:54.415Z,99.99
2022-09-06T03:38:25.877Z,99.99
2022-09-06T03:40:57.025Z,99.99
2022-09-06T03:43:28.955Z,99.99
2022-09-06T03:45:59.594Z,99.99
2022-09-06T03:48:31.387Z,99.99
2022-09-06T03:51:01.831Z,99.99
2022-09-06T03:53:32.219Z,99.99
2022-09-06T03:56:02.077Z,99.99
2022-09-06T03:58:33.514Z,99.99
2022-09-06T04:01:09.435Z,99.99
2022-09-06T04:03:40.452Z,99.99
2022-09-06T04:06:11.467Z,99.99
2022-09-06T04:08:41.523Z,99.99
2022-09-06T04:11:11.856Z,99.99
2022-09-06T04:13:42.888Z,99.99
2022-09-06T04:16:13.016Z,99.99
2022-09-06T04:18:43.361Z,99.99
2022-09-06T04:21:13.781Z,99.99
2022-09-06T04:23:43.620Z,99.99
2022-09-06T04:26:13.631Z,99.99
2022-09-06T04:28:43.502Z,99.99
2022-09-06T04:31:13.368Z,99.99
2022-09-06T04:33:43.710Z,99.99
2022-09-06T04:36:14.529Z,99.99
2022-09-06T04:38:47.038Z,99.99
2022-09-06T04:41:19.838Z,99.99
2022-09-06T04:43:50.733Z,99.99
2022-09-06T04:46:26.124Z,99.99
2022-09-06T04:48:57.791Z,99.99
2022-09-06T04:51:28.477Z,99.99
2022-09-06T04:53:58.679Z,99.99
2022-09-06T04:56:29.143Z,99.99
2022-09-06T04:58:59.027Z,99.99
2022-09-06T05:01:29.010Z,99.99
2022-09-06T05:03:59.347Z,99.99
2022-09-06T05:06:29.596Z,99.99
2022-09-06T05:08:59.482Z,99.99
2022-09-06T05:11:29.511Z,99.99
2022-09-06T05:13:59.486Z,99.99
2022-09-06T05:16:29.442Z,99.99
2022-09-06T05:18:59.697Z,99.99
2022-09-06T05:21:29.535Z,99.99
2022-09-06T05:23:59.791Z,99.99
2022-09-06T05:26:29.578Z,99.99
2022-09-06T05:28:59.480Z,99.99
2022-09-06T05:31:34.724Z,99.99
2022-09-06T05:34:05.524Z,99.99
2022-09-06T05:36:35.746Z,99.99
2022-09-06T05:39:06.264Z,99.99
2022-09-06T05:41:36.170Z,99.99
2022-09-06T05:44:06.143Z,99.99
2022-09-06T05:46:36.058Z,99.99
2022-09-06T05:49:09.212Z,99.99
2022-09-06T05:51:40.264Z,99.99
2022-09-06T05:54:13.724Z,99.99
2022-09-06T05:56:43.830Z,99.99
2022-09-06T05:59:13.629Z,99.99
2022-09-06T06:01:53.101Z,99.99
2022-09-06T06:04:24.626Z,99.99
2022-09-06T06:06:54.756Z,99.99
2022-09-06T06:09:24.877Z,99.99
2022-09-06T06:11:55.200Z,99.99
2022-09-06T06:14:25.129Z,99.99
2022-09-06T06:16:55.514Z,99.99
2022-09-06T06:19:25.529Z,99.99
2022-09-06T06:21:57.398Z,99.99
2022-09-06T06:24:27.952Z,99.99
2022-09-06T06:26:58.279Z,99.99
2022-09-06T06:29:28.138Z,99.99
2022-09-06T06:31:58.059Z,99.99
2022-09-06T06:34:27.948Z,99.99
2022-09-06T06:36:57.774Z,99.99
2022-09-06T06:39:28.046Z,99.99
2022-09-06T06:41:57.901Z,99.99
2022-09-06T06:44:47.975Z,99.99
2022-09-06T06:47:18.143Z,99.99
2022-09-06T06:49:49.732Z,99.99
2022-09-06T06:52:22.525Z,99.99
2022-09-06T06:54:53.000Z,99.99
2022-09-06T06:57:23.252Z,99.99
2022-09-06T06:59:53.608Z,99.99
2022-09-06T07:02:23.531Z,99.99
2022-09-06T07:04:55.932Z,99.99
2022-09-06T07:12:48.035Z,99.99
2022-09-06T07:15:17.908Z,99.99
2022-09-06T07:17:48.474Z,99.99
2022-09-06T07:20:18.946Z,99.99
2022-09-06T07:22:48.945Z,99.99
2022-09-06T07:25:21.445Z,99.99
2022-09-06T07:28:00.578Z,99.99
2022-09-06T07:30:36.136Z,99.99
2022-09-06T07:33:06.621Z,99.99
2022-09-06T07:35:36.523Z,99.99
2022-09-06T07:38:06.370Z,99.99
2022-09-06T07:40:36.331Z,99.99
2022-09-06T07:43:06.308Z,99.99
2022-09-06T07:45:36.828Z,99.99
2022-09-06T07:48:07.119Z,99.99
2022-09-06T07:50:54.633Z,99.99
2022-09-06T07:53:30.927Z,99.99
2022-09-06T07:56:02.860Z,99.99
2022-09-06T07:58:33.877Z,99.99
2022-09-06T08:01:20.229Z,99.99
2022-09-06T08:03:50.422Z,99.99
2022-09-06T08:06:20.336Z,99.99
2022-09-06T08:08:58.301Z,99.99
2022-09-06T08:11:35.688Z,99.99
2022-09-06T08:14:08.807Z,99.99
2022-09-06T08:16:40.702Z,99.99
2022-09-06T08:19:12.130Z,99.99
2022-09-06T08:21:43.076Z,99.99
2022-09-06T08:24:13.567Z,99.99
2022-09-06T08:26:46.244Z,99.99
2022-09-06T08:29:16.635Z,99.99
2022-09-06T08:31:47.674Z,99.99
2022-09-06T08:34:17.999Z,99.99
2022-09-06T08:36:47.838Z,99.99
2022-09-06T08:39:18.014Z,99.99
2022-09-06T08:41:50.864Z,99.99
2022-09-06T08:47:24.380Z,99.99
2022-09-06T08:49:57.021Z,99.99
2022-09-06T08:53:00.111Z,99.99
2022-09-06T08:55:40.619Z,99.99
2022-09-06T08:58:28.847Z,99.99
2022-09-06T09:01:11.257Z,99.99
2022-09-06T09:03:44.164Z,99.99
2022-09-06T09:06:14.783Z,99.99
2022-09-06T09:09:07.077Z,99.99
2022-09-06T09:11:40.867Z,99.99
2022-09-06T09:14:19.050Z,99.99
2022-09-06T09:17:06.325Z,99.99
2022-09-06T09:19:39.007Z,99.99
2022-09-06T09:22:10.537Z,99.99
2022-09-06T09:24:40.701Z,99.99
2022-09-06T09:27:13.946Z,99.99
2022-09-06T09:32:48.812Z,99.99
2022-09-06T09:35:54.341Z,99.99
2022-09-06T09:38:42.879Z,99.99
2022-09-06T09:41:34.444Z,99.99
2022-09-06T09:44:09.108Z,99.99
2022-09-06T09:46:41.377Z,99.99
2022-09-06T09:49:38.075Z,99.99
2022-09-06T09:52:17.966Z,99.99
2022-09-06T09:54:49.290Z,99.99
2022-09-06T09:57:21.419Z,99.99
2022-09-06T10:00:07.683Z,99.99
2022-09-06T10:02:43.201Z,99.99
2022-09-06T10:05:14.519Z,99.99
2022-09-06T10:07:53.125Z,99.99
2022-09-06T10:10:28.721Z,99.99
2022-09-06T10:13:12.116Z,99.99
2022-09-06T10:15:43.028Z,99.99
2022-09-06T10:18:43.330Z,99.99
2022-09-06T10:21:23.600Z,99.99
2022-09-06T10:27:03.469Z,99.99
2022-09-06T10:29:36.582Z,99.99
2022-09-06T10:32:30.799Z,99.99
2022-09-06T10:35:28.046Z,99.99
2022-09-06T10:38:39.971Z,99.99
2022-09-06T10:41:22.025Z,99.99
2022-09-06T10:44:01.367Z,99.99
2022-09-06T10:46:36.648Z,99.99
2022-09-06T10:49:10.220Z,99.99
2022-09-06T10:52:06.397Z,99.99
2022-09-06T10:54:42.304Z,99.99
2022-09-06T11:00:25.797Z,99.99
2022-09-06T11:06:12.939Z,99.99
2022-09-06T11:08:58.273Z,99.99
2022-09-06T11:12:07.728Z,99.99
2022-09-06T11:14:39.616Z,99.99
2022-09-06T11:17:23.044Z,99.99
2022-09-06T11:20:15.270Z,99.99
2022-09-06T11:22:56.807Z,99.99
2022-09-06T11:25:35.900Z,99.99
2022-09-06T11:28:12.474Z,99.99
2022-09-06T11:30:50.884Z,99.99
2022-09-06T11:33:36.821Z,99.99
2022-09-06T11:36:28.346Z,99.99
2022-09-06T11:39:08.230Z,99.99
2022-09-06T11:41:43.819Z,98.97
2022-09-06T11:44:14.150Z,99.75
2022-09-06T11:46:44.130Z,99.14
2022-09-06T11:49:17.266Z,98.28
2022-09-06T11:51:48.841Z,97.51
2022-09-06T11:54:24.463Z,97.95
2022-09-06T11:57:02.761Z,97.23
2022-09-06T11:59:44.374Z,98.67
2022-09-06T12:02:47.335Z,98.67
2022-09-06T12:05:27.468Z,98.10
2022-09-06T12:08:30.321Z,98.42
2022-09-06T12:11:04.701Z,98.48
2022-09-06T12:13:50.144Z,98.27
2022-09-06T12:16:20.781Z,98.89
2022-09-06T12:18:51.077Z,99.64
2022-09-06T12:21:41.550Z,99.60
2022-09-06T12:24:39.724Z,99.17
2022-09-06T12:27:19.789Z,99.35
2022-09-06T12:30:00.587Z,98.74
2022-09-06T12:32:37.132Z,99.21
2022-09-06T12:38:15.747Z,99.58
2022-09-06T12:40:53.095Z,99.99
2022-09-06T12:43:23.644Z,99.99
2022-09-06T12:45:55.024Z,99.99
2022-09-06T12:48:33.660Z,99.99
2022-09-06T12:51:04.110Z,99.99
2022-09-06T12:53:36.003Z,99.99
2022-09-06T12:56:09.913Z,99.99
2022-09-06T12:58:40.868Z,99.99
2022-09-06T13:01:17.132Z,99.99
2022-09-06T13:04:04.006Z,99.90
2022-09-06T13:06:43.200Z,99.78
2022-09-06T13:09:16.751Z,99.84
2022-09-06T13:11:52.879Z,99.35
2022-09-06T13:14:29.314Z,99.43
2022-09-06T13:17:01.106Z,98.43
2022-09-06T13:19:38.151Z,98.73
2022-09-06T13:22:12.078Z,98.07
2022-09-06T13:24:50.327Z,97.21
2022-09-06T13:27:29.755Z,97.67
2022-09-06T13:30:02.345Z,97.89
2022-09-06T13:32:32.981Z,98.52
2022-09-06T13:35:04.183Z,98.82
2022-09-06T13:37:37.494Z,98.88
2022-09-06T13:41:10.662Z,99.70
2022-09-06T13:43:46.322Z,99.25
2022-09-06T13:46:16.493Z,99.61
2022-09-06T13:48:46.758Z,99.89
2022-09-06T13:51:17.074Z,99.99
2022-09-06T13:53:47.131Z,99.99
2022-09-06T13:56:18.101Z,99.99
2022-09-06T13:58:48.456Z,99.99
2022-09-06T14:01:18.839Z,99.99
2022-09-06T14:03:51.115Z,99.99
2022-09-06T14:06:21.695Z,99.99
2022-09-06T14:09:08.583Z,99.99
2022-09-06T14:11:40.907Z,99.99
2022-09-06T14:14:13.446Z,99.99
2022-09-06T14:16:43.475Z,99.99
2022-09-06T14:19:14.299Z,99.99
2022-09-06T14:21:45.094Z,99.99
2022-09-06T14:24:15.244Z,99.99
2022-09-06T14:26:45.211Z,99.99
2022-09-06T14:29:15.081Z,99.99
2022-09-06T14:31:45.527Z,99.99
2022-09-06T14:34:15.831Z,99.99
2022-09-06T14:36:45.768Z,99.99
2022-09-06T14:39:15.811Z,99.99
2022-09-06T14:41:45.742Z,99.99
2022-09-06T14:44:15.728Z,99.99
2022-09-06T14:46:45.861Z,99.99
2022-09-06T14:49:15.852Z,99.99
2022-09-06T14:51:47.124Z,99.99
2022-09-06T14:54:17.870Z,99.99
2022-09-06T14:56:48.096Z,99.99
2022-09-06T14:59:18.358Z,99.99
2022-09-06T15:01:49.199Z,99.99
2022-09-06T15:04:19.524Z,99.99
2022-09-06T15:06:49.601Z,99.99
2022-09-06T15:09:20.384Z,99.99
2022-09-06T15:11:52.890Z,99.99
2022-09-06T15:14:26.394Z,99.99
2022-09-06T15:17:00.714Z,99.99
2022-09-06T15:19:34.257Z,99.99
2022-09-06T15:22:06.373Z,99.54
2022-09-06T15:24:37.835Z,99.01
2022-09-06T15:27:08.088Z,98.57
2022-09-06T15:29:38.410Z,97.85
2022-09-06T15:32:08.756Z,96.17
2022-09-06T15:34:38.608Z,96.64
2022-09-06T15:37:08.591Z,95.24
2022-09-06T15:39:38.497Z,96.17
2022-09-06T15:42:08.844Z,96.84
2022-09-06T15:44:38.830Z,97.08
2022-09-06T15:47:09.104Z,97.52
2022-09-06T15:49:39.230Z,97.82
2022-09-06T15:52:10.624Z,97.51
2022-09-06T15:54:59.165Z,97.51
2022-09-06T15:57:30.287Z,97.60
2022-09-06T16:00:00.579Z,98.02
2022-09-06T16:02:30.686Z,98.26
2022-09-06T16:05:01.101Z,98.45
2022-09-06T16:07:31.614Z,98.01
2022-09-06T16:10:02.187Z,98.51
2022-09-06T16:12:32.486Z,98.34
2022-09-06T16:15:03.367Z,97.99
2022-09-06T16:17:34.023Z,97.18
2022-09-06T16:20:05.605Z,96.87
2022-09-06T16:22:35.879Z,96.66
2022-09-06T16:25:06.661Z,95.85
2022-09-06T16:27:37.213Z,94.49
2022-09-06T16:30:08.114Z,92.05
2022-09-06T16:32:38.694Z,91.20
2022-09-06T16:35:09.276Z,89.66
2022-09-06T16:37:39.444Z,89.83
2022-09-06T16:40:11.080Z,91.23
2022-09-06T16:42:41.418Z,91.09
2022-09-06T16:45:12.823Z,90.64
2022-09-06T16:47:43.819Z,91.30
2022-09-06T16:50:14.325Z,91.92
2022-09-06T16:52:44.498Z,92.10
2022-09-06T16:55:15.097Z,92.08
2022-09-06T16:57:45.982Z,91.82
2022-09-06T17:00:17.307Z,91.34
2022-09-06T17:02:48.865Z,91.95
2022-09-06T17:05:19.295Z,91.39
2022-09-06T17:07:49.778Z,90.53
2022-09-06T17:10:20.166Z,90.90
2022-09-06T17:12:50.138Z,91.98
2022-09-06T17:15:20.201Z,93.00
2022-09-06T17:17:50.632Z,93.40
2022-09-06T17:20:21.833Z,93.88
2022-09-06T17:22:52.704Z,93.65
2022-09-06T17:25:22.928Z,93.23
2022-09-06T17:27:53.213Z,93.70
2022-09-06T17:30:23.203Z,94.56
2022-09-06T17:32:54.057Z,95.26
2022-09-06T17:35:24.020Z,95.03
2022-09-06T17:37:54.458Z,95.60
2022-09-06T17:40:24.505Z,95.64
2022-09-06T17:42:54.369Z,96.07
2022-09-06T17:45:24.598Z,96.39
2022-09-06T17:47:54.827Z,96.33
2022-09-06T17:50:24.853Z,96.89
2022-09-06T17:52:55.129Z,97.36
2022-09-06T17:55:25.381Z,97.57
2022-09-06T17:57:55.511Z,97.76
2022-09-06T18:00:26.498Z,97.71
2022-09-06T18:02:57.363Z,98.56
2022-09-06T18:05:27.973Z,99.00
2022-09-06T18:07:58.427Z,98.81
2022-09-06T18:10:28.392Z,98.98
2022-09-06T18:12:58.288Z,99.17
2022-09-06T18:15:28.231Z,98.89
2022-09-06T18:17:59.265Z,98.68
2022-09-06T18:20:29.429Z,98.50
2022-09-06T18:22:59.957Z,99.21
2022-09-06T18:25:30.304Z,99.09
2022-09-06T18:28:00.555Z,98.41
2022-09-06T18:30:30.471Z,97.55
2022-09-06T18:33:00.338Z,97.14
2022-09-06T18:35:30.298Z,96.31
2022-09-06T18:38:00.550Z,95.59
2022-09-06T18:40:30.473Z,95.06
2022-09-06T18:43:00.641Z,94.38
2022-09-06T18:45:32.651Z,93.45
2022-09-06T18:48:02.961Z,93.88
2022-09-06T18:50:32.782Z,93.03
2022-09-06T18:53:02.731Z,93.13
2022-09-06T18:55:44.008Z,93.44
2022-09-06T18:58:15.355Z,93.09
2022-09-06T19:00:45.718Z,93.29
2022-09-06T19:03:15.888Z,90.73
2022-09-06T19:05:45.821Z,91.18
2022-09-06T19:08:15.663Z,90.79
2022-09-06T19:10:45.856Z,90.53
2022-09-06T19:13:16.190Z,89.31
2022-09-06T19:15:46.654Z,88.85
2022-09-06T19:18:16.577Z,88.89
2022-09-06T19:20:47.979Z,88.17
2022-09-06T19:23:18.526Z,87.17
2022-09-06T19:25:48.570Z,87.17
2022-09-06T19:28:18.625Z,88.01
2022-09-06T19:30:48.608Z,89.04
2022-09-06T19:33:18.788Z,89.27
2022-09-06T19:36:07.954Z,90.64
2022-09-06T19:39:01.899Z,90.80
2022-09-06T19:41:33.538Z,90.21
2022-09-06T19:44:06.630Z,89.81
2022-09-06T19:46:38.888Z,90.01
2022-09-06T19:49:11.570Z,90.48
2022-09-06T19:51:42.137Z,90.33
2022-09-06T19:54:12.330Z,91.24
2022-09-06T19:56:42.511Z,91.60
2022-09-06T19:59:14.092Z,92.07
2022-09-06T20:01:46.015Z,92.06
2022-09-06T20:04:16.944Z,92.78
2022-09-06T20:06:47.419Z,92.93
2022-09-06T20:09:18.109Z,93.12
2022-09-06T20:11:48.825Z,93.18
2022-09-06T20:14:18.744Z,93.22
2022-09-06T20:16:48.697Z,93.29
2022-09-06T20:19:18.690Z,92.85
2022-09-06T20:21:49.012Z,92.79
2022-09-06T20:24:19.034Z,92.62
2022-09-06T20:26:49.491Z,92.83
2022-09-06T20:29:19.508Z,92.81
2022-09-06T20:31:49.434Z,93.29
2022-09-06T20:34:20.178Z,93.54
2022-09-06T20:36:50.752Z,93.75
2022-09-06T20:39:20.941Z,93.96
2022-09-06T20:41:50.860Z,94.45
2022-09-06T20:44:21.035Z,94.49
2022-09-06T20:46:51.445Z,95.22
2022-09-06T20:49:22.700Z,95.21
2022-09-06T20:51:52.717Z,95.14
2022-09-06T20:54:22.566Z,95.37
2022-09-06T20:56:52.777Z,95.35
2022-09-06T20:59:23.004Z,95.22
2022-09-06T21:01:54.747Z,95.24
2022-09-06T21:04:24.867Z,95.67
2022-09-06T21:06:55.390Z,95.52
2022-09-06T21:09:25.926Z,95.71
2022-09-06T21:11:56.600Z,95.46
2022-09-06T21:14:26.958Z,95.91
2022-09-06T21:16:57.395Z,95.83
2022-09-06T21:19:27.643Z,96.13
2022-09-06T21:21:57.769Z,95.66
2022-09-06T21:24:27.666Z,95.70
2022-09-06T21:26:57.558Z,96.16
2022-09-06T21:29:27.495Z,96.66
2022-09-06T21:31:57.435Z,96.52
2022-09-06T21:34:27.485Z,96.17
2022-09-06T21:36:59.417Z,96.18
2022-09-06T21:39:29.531Z,96.03
2022-09-06T21:41:59.905Z,95.80
2022-09-06T21:44:30.030Z,95.79
2022-09-06T21:47:00.265Z,95.69
2022-09-06T21:49:30.203Z,95.96
2022-09-06T21:52:00.279Z,95.99
2022-09-06T21:54:30.384Z,95.87
2022-09-06T21:57:00.303Z,95.84
2022-09-06T21:59:30.256Z,96.00
2022-09-06T22:02:00.238Z,95.86
2022-09-06T22:04:30.258Z,95.88
2022-09-06T22:07:00.701Z,95.90
2022-09-06T22:09:30.980Z,96.22
2022-09-06T22:12:00.944Z,96.43
2022-09-06T22:14:30.820Z,96.62
2022-09-06T22:17:00.705Z,97.03
2022-09-06T22:19:30.584Z,97.44
2022-09-06T22:22:00.453Z,97.69
2022-09-06T22:24:31.056Z,98.13
2022-09-06T22:27:01.129Z,98.46
2022-09-06T22:29:31.571Z,98.12
2022-09-06T22:32:01.503Z,98.31
2022-09-06T22:34:31.570Z,98.38
2022-09-06T22:37:01.449Z,98.67
2022-09-06T22:39:32.122Z,98.90
2022-09-06T22:42:02.373Z,98.97
2022-09-06T22:44:33.203Z,98.63
2022-09-06T22:47:03.347Z,97.77
2022-09-06T22:49:33.963Z,97.95
2022-09-06T22:52:04.228Z,98.01
2022-09-06T22:54:34.301Z,98.22
2022-09-06T22:57:05.326Z,98.41
2022-09-06T22:59:38.753Z,98.82
2022-09-06T23:02:08.814Z,98.92
2022-09-06T23:04:38.769Z,99.01
2022-09-06T23:07:08.732Z,99.11
2022-09-06T23:09:39.053Z,99.21
2022-09-06T23:12:09.108Z,99.21
2022-09-06T23:14:39.535Z,99.16
2022-09-06T23:17:09.656Z,99.02
2022-09-06T23:19:40.226Z,98.80
2022-09-06T23:22:10.264Z,98.63
2022-09-06T23:24:41.118Z,98.50
2022-09-06T23:27:11.410Z,98.34
2022-09-06T23:29:45.137Z,98.46
2022-09-06T23:32:15.506Z,98.78
2022-09-06T23:34:45.373Z,98.84
2022-09-06T23:37:15.779Z,98.81
2022-09-06T23:39:46.072Z,99.02
2022-09-06T23:42:16.602Z,98.82
2022-09-06T23:44:46.641Z,98.65
2022-09-06T23:47:16.701Z,98.59
2022-09-06T23:49:47.085Z,98.91
2022-09-06T23:52:17.132Z,99.15
2022-09-06T23:54:47.424Z,99.86
2022-09-06T23:57:17.504Z,99.66
2022-09-06T23:59:47.478Z,99.40
